Flight Track Log - Related Links

Times and Time Zones

All times are in EDT time to prevent confusion due to time zone crossing. See the N850UA flight status page for this flight to view local times or setup timezone preferences in your user account.

Time Position Orientation Groundspeed Altitude Reporting Facility
EDT Latitude Longitude Course Direction KTS MPH feet Rate Location/Type
Mon 07:31:14 AM 40.7167 -74.1333 287° West 171 197 1,900  Level New York TRACON
Mon 07:32:00 AM 40.7333 -74.3988 270° West  Level FlightAware Approximate
Mon 07:32:14 AM 40.7833 -74.1500 349° North 271 312 5,600  Level New York TRACON
Mon 07:33:00 AM 40.7674 -74.5042 284° West  Level FlightAware Approximate
Mon 07:33:14 AM 40.7833 -74.2500 270° West 279 321 9,600  Level New York TRACON
Mon 07:34:00 AM 40.7892 -74.6238 284° West  Level FlightAware Approximate
Mon 07:34:14 AM 40.8000 -74.3833 279° West 368 423 10,000  Level New York TRACON
Mon 07:35:00 AM 40.8137 -74.7426 287° West  Level FlightAware Approximate
Mon 07:35:14 AM 40.8167 -74.5167 279° West 388 447 11,400  Level New York TRACON
Mon 07:36:00 AM 40.8409 -74.8604 287° West  Level FlightAware Approximate
Mon 07:36:14 AM 40.8500 -74.6500 288° West 400 460 14,300  Level New York TRACON
Mon 07:37:15 AM 40.8678 -74.8019 279° West 426 490 16,000 1,033 Climbing New York Center
Mon 07:38:16 AM 40.8861 -74.9375 280° West 419 482 16,400 496 Climbing New York Center
Mon 07:39:16 AM 40.9092 -75.1011 281° West 419 482 17,000 850 Climbing New York Center
Mon 07:40:16 AM 40.8997 -75.2486 265° West 413 475 18,100 1,686 Climbing New York Center
Mon 07:41:17 AM 40.8647 -75.3944 252° West 409 471 20,400 2,672 Climbing New York Center
Mon 07:42:15 AM 40.8325 -75.5294 253° West 404 465 23,400 2,390 Climbing New York Center
Mon 07:43:15 AM 40.7997 -75.6669 253° West 399 459 25,100 1,869 Climbing New York Center
Mon 07:44:17 AM 40.7664 -75.8153 254° West 404 465 27,200 1,721 Climbing New York Center
Mon 07:45:17 AM 40.7386 -75.9283 252° West 410 472 28,600 2,085 Climbing New York Center
Mon 07:46:15 AM 40.6975 -76.1003 253° West 416 479 31,300 2,269 Climbing New York Center
Mon 07:47:16 AM 40.6764 -76.2467 259° West 416 479 33,100 1,289 Climbing New York Center
Mon 07:48:16 AM 40.6861 -76.3950 275° West 401 461 33,900 397 Climbing New York Center
Mon 07:49:17 AM 40.7100 -76.5478 282° West 411 473 33,900  Level New York Center
Mon 07:50:17 AM 40.7317 -76.7003 281° West 425 489 33,900  Level New York Center
Mon 07:51:17 AM 40.7547 -76.8583 281° West 431 496 33,900  Level New York Center
Mon 07:52:15 AM 40.7781 -77.0139 281° West 431 496 33,900 51 Level New York Center
Mon 07:53:15 AM 40.8008 -77.1697 281° West 431 496 34,000 50 Climbing New York Center
Mon 07:54:16 AM 40.8236 -77.3253 281° West 431 496 34,000 -50 Level New York Center
Mon 07:55:16 AM 40.8439 -77.4836 280° West 431 496 33,900  Descending New York Center
Mon 07:56:16 AM 40.8683 -77.6425 282° West 431 496 34,000 30 Climbing New York Center
Mon 07:58:36 AM 40.9181 -78.0111 280° West 429 494 34,000  Level Cleveland Center
Mon 07:59:37 AM 40.9442 -78.1667 283° West 429 494 34,000 -50 Level Cleveland Center
Mon 08:00:37 AM 40.9747 -78.3306 284° West 436 502 33,900 -50 Descending Cleveland Center
Mon 08:01:37 AM 40.9986 -78.4839 282° West 442 509 33,900 50 Level Cleveland Center
Mon 08:02:37 AM 41.0242 -78.6428 282° West 442 509 34,000  Climbing Cleveland Center
Mon 08:03:37 AM 41.0475 -78.7989 281° West 442 509 33,900 -150 Descending Cleveland Center
Mon 08:04:37 AM 41.0750 -78.9525 283° West 442 509 33,700 -600 Descending Cleveland Center
Mon 08:05:37 AM 41.0981 -79.1117 281° West 442 509 32,700 -850 Descending Cleveland Center
Mon 08:06:37 AM 41.1206 -79.2600 281° West 447 514 32,000 -500 Descending Cleveland Center
Mon 08:07:37 AM 41.1453 -79.4167 282° West 447 514 31,700 -850 Descending Cleveland Center
Mon 08:08:37 AM 41.1717 -79.5764 282° West 447 514 30,300 -1,412 Descending Cleveland Center
Mon 08:09:36 AM 41.1939 -79.7386 280° West 447 514 28,900 -1,210 Descending Cleveland Center
Mon 08:10:36 AM 41.1972 -79.9014 272° West 447 514 27,900 -843 Descending Cleveland Center
Mon 08:11:37 AM 41.1750 -80.0644 260° West 441 507 27,200 -1,350 Descending Cleveland Center
Mon 08:12:36 AM 41.1736 -80.2244 269° West 441 507 25,200 -2,200 Descending Cleveland Center
Mon 08:13:37 AM 41.2303 -80.3953 294° West 439 505 22,800 -2,479 Descending Cleveland Center
Mon 08:14:37 AM 41.2844 -80.5500 295° West 452 520 20,200 -2,370 Descending Cleveland Center
Mon 08:15:36 AM 41.3386 -80.6939 297° West 446 513 18,100 -2,370 Descending Cleveland Center
Mon 08:16:36 AM 41.3928 -80.8350 297° West 434 499 15,500 -2,474 Descending Cleveland Center
Mon 08:17:30 AM 41.4383 -80.9569 297° West 413 475 13,400 -2,462 Descending Cleveland Center
Mon 08:17:54 AM 41.4567 -81.0097 295° West 408 470 12,300 -2,776 Descending Cleveland Center
Mon 08:18:37 AM 41.4878 -81.1069 293° West 414 476 10,300 -1,340 Descending Cleveland Center
Mon 08:19:37 AM 41.4744 -81.2456 263° West 378 435 10,000 -228 Descending Cleveland Center
Mon 08:19:56 AM 41.4681 -81.2869 258° West 385 443 10,000  Level Cleveland Center
Mon 08:20:37 AM 41.4589 -81.3894 263° West 388 447 10,000  Level Cleveland Center
Mon 08:20:56 AM 41.4525 -81.4281 258° West 389 448 10,000  Level Cleveland Center
Mon 08:21:37 AM 41.4433 -81.5278 263° West 385 443 10,000  Level Cleveland Center
Mon 08:21:57 AM 41.4386 -81.5719 262° West 333 383 10,000 -300 Level Cleveland Center
Mon 08:22:37 AM 41.4172 -81.6325 245° Southwest 334 384 9,700 -984 Descending Cleveland Center
Mon 08:22:58 AM 41.4044 -81.6711 246° West 275 316 9,000 -1,627 Descending Cleveland Center
Mon 08:23:36 AM 41.3811 -81.7261 241° Southwest 294 338 8,100 -1,444 Descending Cleveland Center
Mon 08:23:52 AM 41.3725 -81.7481 242° Southwest 278 320 7,700 -1,574 Descending Cleveland Center
Mon 08:24:37 AM 41.3467 -81.8111 241° Southwest 269 310 6,500 -1,475 Descending Cleveland Center
Mon 08:24:53 AM 41.3361 -81.8303 234° Southwest 234 269 6,200 -1,125 Descending Cleveland Center

Login

Don't have an account? Register now (free) for customized features, flight alerts, and more!